createdAt,value
2023-02-24T00:02:05.872Z,11.13
2023-02-24T00:07:10.431Z,10.23
2023-02-24T00:12:15.182Z,10.27
2023-02-24T00:17:16.893Z,10.13
2023-02-24T00:22:18.565Z,10.30
2023-02-24T00:27:20.257Z,9.00
2023-02-24T00:32:23.818Z,10.67
2023-02-24T00:37:25.585Z,10.30
2023-02-24T00:42:27.416Z,10.07
2023-02-24T00:47:29.073Z,10.07
2023-02-24T00:52:30.630Z,10.77
2023-02-24T00:57:35.434Z,10.43
2023-02-24T01:02:38.327Z,9.97
2023-02-24T01:07:39.959Z,9.87
2023-02-24T01:12:49.792Z,9.37
2023-02-24T01:17:51.629Z,8.87
2023-02-24T01:22:53.566Z,9.13
2023-02-24T01:27:55.915Z,9.23
2023-02-24T01:32:57.724Z,10.13
2023-02-24T01:38:01.755Z,10.30
2023-02-24T01:43:08.737Z,10.93
2023-02-24T01:48:11.055Z,11.27
2023-02-24T01:53:12.677Z,11.53
2023-02-24T01:58:23.715Z,9.83
2023-02-24T02:03:29.688Z,10.37
2023-02-24T02:08:31.660Z,10.03
2023-02-24T02:13:35.717Z,9.47
2023-02-24T02:19:19.020Z,10.10
2023-02-24T02:24:37.447Z,9.57
2023-02-24T02:30:23.846Z,9.73
2023-02-24T02:35:29.191Z,10.50
2023-02-24T02:40:45.764Z,10.57
2023-02-24T02:46:10.780Z,10.47
2023-02-24T02:51:17.212Z,10.80
2023-02-24T02:56:25.632Z,11.13
2023-02-24T03:01:33.543Z,10.40
2023-02-24T03:06:42.483Z,11.23
2023-02-24T03:11:49.453Z,10.73
2023-02-24T03:16:53.345Z,10.37
2023-02-24T03:22:03.863Z,9.63
2023-02-24T03:27:13.356Z,10.53
2023-02-24T03:32:22.246Z,9.67
2023-02-24T03:37:27.977Z,10.77
2023-02-24T03:42:32.640Z,10.37
2023-02-24T03:47:35.532Z,10.90
2023-02-24T03:52:59.481Z,11.20
2023-02-24T03:58:12.695Z,11.00
2023-02-24T04:03:38.942Z,10.60
2023-02-24T04:09:17.544Z,10.73
2023-02-24T04:14:34.618Z,11.23
2023-02-24T04:19:40.621Z,11.17
2023-02-24T04:24:44.743Z,10.67
2023-02-24T04:29:52.292Z,10.83
2023-02-24T04:35:02.260Z,10.80
2023-02-24T04:40:11.636Z,10.70
2023-02-24T04:45:28.052Z,10.40
2023-02-24T04:50:33.924Z,10.37
2023-02-24T04:55:40.403Z,10.50
2023-02-24T05:00:42.310Z,10.60
2023-02-24T05:06:01.903Z,10.63
2023-02-24T05:11:03.862Z,12.40
2023-02-24T05:16:08.329Z,11.47
2023-02-24T05:21:31.449Z,11.87
2023-02-24T05:26:35.856Z,11.70
2023-02-24T05:31:37.561Z,11.10
2023-02-24T05:36:40.682Z,11.40
2023-02-24T05:41:43.397Z,11.03
2023-02-24T05:46:46.640Z,12.37
2023-02-24T05:51:56.601Z,11.07
2023-02-24T05:57:00.570Z,10.03
2023-02-24T06:02:09.108Z,11.37
2023-02-24T06:07:26.218Z,9.43
2023-02-24T06:12:30.236Z,8.53
2023-02-24T06:17:31.789Z,6.40
2023-02-24T06:22:42.180Z,5.57
2023-02-24T06:27:44.250Z,5.13
2023-02-24T06:32:46.771Z,4.17
2023-02-24T06:37:48.473Z,5.10
2023-02-24T06:42:54.917Z,4.93
2023-02-24T06:47:58.030Z,4.53
2023-02-24T06:53:00.734Z,4.27
2023-02-24T06:58:05.374Z,4.57
2023-02-24T07:03:15.879Z,6.10
2023-02-24T07:08:19.205Z,6.43
2023-02-24T07:13:24.397Z,7.43
2023-02-24T07:18:30.921Z,7.10
2023-02-24T07:23:32.737Z,7.40
2023-02-24T07:28:34.470Z,7.63
2023-02-24T07:33:36.770Z,7.93
2023-02-24T07:38:39.020Z,7.00
2023-02-24T07:43:41.681Z,5.27
2023-02-24T07:48:43.246Z,4.13
2023-02-24T07:53:50.991Z,3.63
2023-02-24T07:59:00.199Z,4.07
2023-02-24T08:04:01.768Z,3.77
2023-02-24T08:09:20.363Z,3.90
2023-02-24T08:14:30.072Z,3.53
2023-02-24T08:19:33.364Z,3.27
2023-02-24T08:24:35.923Z,3.10
2023-02-24T08:29:57.981Z,2.97
2023-02-24T08:35:03.548Z,2.60
2023-02-24T08:40:34.076Z,3.30
2023-02-24T08:45:38.623Z,2.97
2023-02-24T08:50:40.142Z,3.57
2023-02-24T08:55:42.746Z,3.17
2023-02-24T09:00:50.161Z,2.70
2023-02-24T09:05:54.684Z,2.67
2023-02-24T09:10:56.220Z,2.20
2023-02-24T09:15:57.819Z,3.50
2023-02-24T09:21:28.632Z,1.90
2023-02-24T09:26:33.815Z,2.17
2023-02-24T09:31:49.172Z,2.40
2023-02-24T09:37:02.983Z,2.40
2023-02-24T09:42:07.575Z,2.40
2023-02-24T09:47:40.315Z,2.60
2023-02-24T09:52:42.827Z,2.40
2023-02-24T09:58:15.284Z,2.57
2023-02-24T10:03:42.420Z,2.87
2023-02-24T10:08:49.733Z,2.40
2023-02-24T10:13:54.645Z,2.33
2023-02-24T10:19:15.180Z,2.73
2023-02-24T10:24:29.276Z,2.50
2023-02-24T10:29:45.428Z,3.40
2023-02-24T10:34:49.294Z,2.83
2023-02-24T10:39:52.037Z,3.50
2023-02-24T10:45:17.256Z,3.60
2023-02-24T10:50:29.796Z,3.40
2023-02-24T10:55:43.971Z,3.90
2023-02-24T11:01:05.928Z,3.53
2023-02-24T11:06:42.410Z,3.97
2023-02-24T11:12:02.852Z,3.80
2023-02-24T11:17:17.413Z,3.73
2023-02-24T11:22:24.992Z,3.20
2023-02-24T11:27:27.693Z,3.53
2023-02-24T11:32:55.072Z,3.67
2023-02-24T11:38:26.912Z,3.37
2023-02-24T11:43:30.059Z,3.30
2023-02-24T11:48:36.175Z,3.50
2023-02-24T11:53:56.629Z,3.23
2023-02-24T11:59:06.390Z,3.50
2023-02-24T12:04:30.047Z,3.50
2023-02-24T12:09:38.183Z,3.50
2023-02-24T12:14:53.882Z,2.97
2023-02-24T12:19:58.824Z,2.90
2023-02-24T12:25:00.512Z,3.60
2023-02-24T12:30:48.564Z,3.70
2023-02-24T12:36:05.348Z,3.33
2023-02-24T12:41:15.601Z,2.87
2023-02-24T12:46:22.317Z,3.47
2023-02-24T12:51:42.254Z,3.20
2023-02-24T12:57:02.335Z,3.20
2023-02-24T13:02:25.400Z,3.20
2023-02-24T13:08:06.754Z,3.00
2023-02-24T13:13:26.111Z,3.23
2023-02-24T13:18:30.418Z,3.37
2023-02-24T13:23:32.211Z,3.60
2023-02-24T13:28:38.739Z,3.07
2023-02-24T13:33:44.933Z,3.53
2023-02-24T13:38:49.009Z,3.70
2023-02-24T13:44:01.827Z,3.73
2023-02-24T13:49:22.911Z,3.50
2023-02-24T13:54:50.154Z,3.70
2023-02-24T14:00:10.198Z,3.30
2023-02-24T14:05:26.400Z,3.23
2023-02-24T14:10:31.501Z,3.33
2023-02-24T14:15:33.778Z,4.30
2023-02-24T14:20:37.916Z,3.30
2023-02-24T14:25:39.914Z,3.17
2023-02-24T14:30:41.625Z,3.40
2023-02-24T14:35:46.166Z,3.57
2023-02-24T14:40:48.779Z,3.20
2023-02-24T14:45:59.863Z,3.30
2023-02-24T14:51:09.558Z,3.83
2023-02-24T14:56:12.346Z,3.63
2023-02-24T15:01:52.596Z,4.03
2023-02-24T15:06:54.406Z,3.33
2023-02-24T15:11:56.455Z,3.37
2023-02-24T15:17:11.047Z,3.80
2023-02-24T15:22:27.327Z,4.20
2023-02-24T15:27:29.093Z,3.50
2023-02-24T15:32:32.714Z,3.80
2023-02-24T15:37:41.999Z,4.00
2023-02-24T15:42:52.850Z,3.80
2023-02-24T15:47:59.571Z,3.80
2023-02-24T15:53:04.195Z,3.73
2023-02-24T15:58:05.764Z,4.10
2023-02-24T16:03:07.377Z,4.33
2023-02-24T16:08:14.055Z,3.50
2023-02-24T16:13:19.683Z,3.93
2023-02-24T16:18:23.401Z,3.70
2023-02-24T16:23:26.149Z,4.50
2023-02-24T16:28:27.872Z,3.40
2023-02-24T16:33:29.554Z,4.33
2023-02-24T16:38:31.347Z,3.80
2023-02-24T16:43:35.321Z,3.70
2023-02-24T16:48:38.750Z,3.60
2023-02-24T16:53:40.697Z,4.03
2023-02-24T16:58:42.343Z,3.73
2023-02-24T17:03:46.461Z,3.80
2023-02-24T17:08:48.911Z,3.80
2023-02-24T17:13:50.533Z,3.40
2023-02-24T17:18:52.064Z,3.73
2023-02-24T17:23:53.657Z,3.90
2023-02-24T17:28:55.575Z,4.10
2023-02-24T17:33:57.183Z,3.80
2023-02-24T17:38:58.759Z,4.10
2023-02-24T17:44:00.442Z,4.27
2023-02-24T17:49:04.915Z,4.60
2023-02-24T17:54:06.887Z,5.17
2023-02-24T17:59:08.567Z,4.37
2023-02-24T18:04:14.706Z,5.00
2023-02-24T18:09:16.725Z,5.67
2023-02-24T18:14:18.813Z,5.53
2023-02-24T18:19:20.562Z,6.53
2023-02-24T18:24:22.831Z,5.43
2023-02-24T18:29:24.528Z,5.67
2023-02-24T18:34:26.049Z,5.10
2023-02-24T18:39:29.009Z,4.50
2023-02-24T18:44:31.122Z,4.60
2023-02-24T18:49:32.657Z,4.50
2023-02-24T18:54:34.397Z,4.73
2023-02-24T18:59:35.903Z,5.60
2023-02-24T19:04:38.902Z,6.00
2023-02-24T19:09:41.862Z,6.47
2023-02-24T19:14:44.358Z,7.30
2023-02-24T19:19:46.685Z,7.23
2023-02-24T19:24:48.306Z,8.47
2023-02-24T19:29:50.357Z,6.77
2023-02-24T19:34:51.995Z,6.77
2023-02-24T19:39:54.803Z,6.60
2023-02-24T19:44:56.435Z,6.97
2023-02-24T19:49:58.328Z,7.63
2023-02-24T19:54:59.923Z,5.30
2023-02-24T20:00:03.907Z,5.17
2023-02-24T20:05:13.710Z,5.17
2023-02-24T20:10:16.777Z,4.33
2023-02-24T20:15:18.455Z,3.07
2023-02-24T20:20:20.305Z,3.87
2023-02-24T20:25:21.962Z,4.53
2023-02-24T20:30:23.464Z,3.57
2023-02-24T20:35:26.266Z,2.50
2023-02-24T20:40:27.841Z,2.40
2023-02-24T20:45:29.491Z,2.50
2023-02-24T20:50:31.135Z,3.37
2023-02-24T20:55:32.730Z,2.50
2023-02-24T21:00:34.390Z,2.80
2023-02-24T21:05:36.195Z,2.67
2023-02-24T21:10:37.853Z,2.27
2023-02-24T21:15:39.590Z,2.87
2023-02-24T21:20:41.381Z,3.77
2023-02-24T21:25:43.046Z,3.00
2023-02-24T21:30:45.257Z,2.90
2023-02-24T21:36:04.225Z,3.30
2023-02-24T21:41:07.992Z,2.93
2023-02-24T21:46:10.495Z,3.20
2023-02-24T21:51:13.566Z,3.47
2023-02-24T21:56:17.382Z,2.87
2023-02-24T22:01:28.522Z,2.67
2023-02-24T22:06:33.149Z,3.27
2023-02-24T22:11:37.067Z,2.63
2023-02-24T22:16:39.414Z,2.43
2023-02-24T22:21:42.413Z,2.57
2023-02-24T22:26:44.605Z,2.90
2023-02-24T22:31:49.476Z,2.80
2023-02-24T22:36:51.796Z,3.00
2023-02-24T22:41:54.207Z,3.17
2023-02-24T22:46:57.042Z,3.17
2023-02-24T22:51:58.638Z,3.30
2023-02-24T22:57:00.236Z,3.30
2023-02-24T23:02:01.777Z,3.50
2023-02-24T23:07:03.819Z,3.07
2023-02-24T23:12:06.152Z,3.40
2023-02-24T23:17:08.709Z,4.10
2023-02-24T23:22:10.260Z,3.30
2023-02-24T23:27:12.141Z,3.00
2023-02-24T23:32:14.402Z,2.97
2023-02-24T23:37:16.760Z,3.13
2023-02-24T23:42:19.677Z,4.77
2023-02-24T23:47:21.315Z,3.07
2023-02-24T23:52:23.967Z,3.17
2023-02-24T23:57:27.169Z,3.33
